Time;durP1;ratioP1;P1;durP2;ratioP2;P2;SDS_P1;SDS_P2;PMS_P1;PMS_P2;Temp;Humidity;BMP_temperature;BMP_pressure;BME280_temperature;BME280_humidity;BME280_pressure;Samples;Min_cycle;Max_cycle;Signal;HPM_P1;HPM_P2
2023/03/21 00:00:26;;;;;;;7.55;3.38;;;11.60;99.90;;;11.60;94.43;101180.78;5144454;28;20524;-76
2023/03/21 00:02:58;;;;;;;9.23;3.60;;;11.60;99.90;;;11.60;94.41;101186.00;5136289;28;20055;-76
2023/03/21 00:05:31;;;;;;;6.15;2.97;;;11.60;99.90;;;11.60;94.72;101171.22;5159894;28;20403;-76
2023/03/21 00:08:05;;;;;;;28.40;12.13;;;11.50;99.90;;;11.60;94.92;101175.56;5127894;28;20031;-77
2023/03/21 00:10:39;;;;;;;44.42;18.80;;;11.50;99.90;;;11.58;94.90;101174.63;5112181;28;20105;-76
2023/03/21 00:13:12;;;;;;;40.03;17.15;;;11.50;99.90;;;11.55;95.00;101167.56;5136859;28;20054;-76
2023/03/21 00:15:53;;;;;;;45.30;16.95;;;11.50;99.90;;;11.52;95.25;101162.22;5143680;28;20055;-75
2023/03/21 00:18:25;;;;;;;40.05;15.25;;;11.50;99.90;;;11.49;95.68;101162.13;5114289;28;20043;-76
2023/03/21 00:20:59;;;;;;;26.35;11.57;;;11.50;99.90;;;11.49;95.87;101167.34;5157639;23;20043;-81
2023/03/21 00:23:35;;;;;;;26.80;9.88;;;11.40;99.90;;;11.49;95.83;101156.91;5151466;28;20047;-81
2023/03/21 00:26:09;;;;;;;18.20;7.30;;;11.40;99.90;;;11.50;96.10;101158.69;5160073;23;20039;-68
2023/03/21 00:28:43;;;;;;;14.98;5.97;;;11.40;99.90;;;11.50;96.22;101155.19;5138611;28;20539;-68
2023/03/21 00:31:15;;;;;;;11.82;4.63;;;11.40;99.90;;;11.49;96.16;101161.25;5124470;28;20042;-68
2023/03/21 00:33:47;;;;;;;7.65;3.45;;;11.40;99.90;;;11.48;95.97;101149.03;5136013;28;20059;-69
2023/03/21 00:36:20;;;;;;;6.18;2.58;;;11.40;99.90;;;11.47;96.32;101142.88;5124275;29;20043;-68
2023/03/21 00:38:52;;;;;;;6.15;2.00;;;11.40;99.90;;;11.45;96.56;101148.91;5123742;29;20047;-68
2023/03/21 00:41:26;;;;;;;5.50;2.60;;;11.40;99.90;;;11.44;96.50;101144.50;5124515;29;20472;-69
2023/03/21 00:43:58;;;;;;;2.65;1.55;;;11.40;99.90;;;11.45;96.62;101148.91;5123719;28;20051;-67
2023/03/21 00:46:34;;;;;;;4.75;1.85;;;11.40;99.90;;;11.44;96.31;101142.78;5134841;28;20119;-68
2023/03/21 00:49:06;;;;;;;4.43;1.50;;;11.40;99.90;;;11.43;96.61;101138.41;5123706;29;20039;-70
2023/03/21 00:51:38;;;;;;;5.35;1.92;;;11.40;99.90;;;11.43;96.93;101138.41;5122812;29;20061;-68
2023/03/21 00:54:12;;;;;;;5.53;1.85;;;11.40;99.90;;;11.42;96.97;101128.78;5138695;28;20075;-69
2023/03/21 00:56:47;;;;;;;2.40;1.42;;;11.40;99.90;;;11.43;96.76;101130.56;5123952;28;20039;-69
2023/03/21 00:59:20;;;;;;;5.07;2.20;;;11.40;99.90;;;11.41;97.07;101127.91;5122507;29;20449;-68
2023/03/21 01:01:52;;;;;;;4.63;1.48;;;11.30;99.90;;;11.40;97.02;101125.22;5123755;29;20142;-69
2023/03/21 01:04:25;;;;;;;3.45;1.90;;;11.30;99.90;;;11.38;97.02;101122.56;5122549;29;20062;-68
2023/03/21 01:06:59;;;;;;;3.05;1.58;;;11.40;99.90;;;11.40;97.13;101122.59;5138157;28;20035;-67
2023/03/21 01:09:31;;;;;;;3.83;1.85;;;11.40;99.90;;;11.39;96.93;101113.91;5118912;28;20055;-68
2023/03/21 01:12:05;;;;;;;5.18;1.98;;;11.30;99.90;;;11.40;96.88;101120.88;5136473;28;20035;-69
2023/03/21 01:14:38;;;;;;;4.25;1.90;;;11.30;99.90;;;11.39;97.25;101119.13;5123538;29;20039;-69
2023/03/21 01:17:10;;;;;;;2.83;1.60;;;11.30;99.90;;;11.39;97.26;101116.50;5122961;29;20043;-67
2023/03/21 01:19:42;;;;;;;2.78;1.50;;;11.30;99.90;;;11.40;97.17;101114.78;5121976;29;20054;-68
2023/03/21 01:22:14;;;;;;;3.42;1.50;;;11.30;99.90;;;11.41;97.26;101106.16;5116091;29;20047;-68
2023/03/21 01:24:46;;;;;;;3.42;1.70;;;11.40;99.90;;;11.41;97.39;101108.75;5123200;28;20043;-68
2023/03/21 01:27:20;;;;;;;5.03;1.90;;;11.40;99.90;;;11.44;97.28;101102.75;5134311;28;20075;-68
2023/03/21 01:29:54;;;;;;;4.05;1.58;;;11.40;99.90;;;11.44;97.00;101103.63;5133435;28;20048;-69
2023/03/21 01:32:26;;;;;;;3.22;1.80;;;11.40;99.90;;;11.45;97.00;101102.78;5123291;29;20043;-68
2023/03/21 01:34:59;;;;;;;4.68;1.63;;;11.40;99.90;;;11.45;97.14;101097.56;5121399;29;20083;-68
2023/03/21 01:37:31;;;;;;;6.10;1.90;;;11.40;99.90;;;11.42;97.13;101097.47;5138088;28;20051;-68
2023/03/21 01:40:06;;;;;;;5.90;1.90;;;11.40;99.90;;;11.44;96.82;101095.78;5123105;28;20055;-68
2023/03/21 01:42:39;;;;;;;4.72;2.50;;;11.40;99.90;;;11.43;97.34;101088.81;5121582;28;20057;-69
2023/03/21 01:46:19;;;;;;;7.50;2.28;;;11.40;99.90;;;11.40;97.43;101104.34;5137318;28;20043;-67
2023/03/21 01:49:17;;;;;;;5.78;1.63;;;11.40;99.90;;;11.40;97.46;101093.91;5122207;28;20047;-68
2023/03/21 01:51:54;;;;;;;4.72;1.95;;;11.30;99.90;;;11.38;97.50;101095.56;5134694;28;20051;-68
2023/03/21 01:54:32;;;;;;;8.15;2.15;;;11.30;99.90;;;11.37;97.71;101099.03;5117442;29;20486;-68
2023/03/21 01:57:09;;;;;;;9.05;1.80;;;11.30;99.90;;;11.36;97.68;101092.91;5135922;28;20039;-68
2023/03/21 01:59:48;;;;;;;3.50;2.00;;;11.30;99.90;;;11.36;97.80;101092.91;5137345;28;20059;-69
2023/03/21 02:03:01;;;;;;;5.57;2.15;;;11.30;99.90;;;11.37;97.61;101088.59;5120858;29;20484;-68
2023/03/21 02:06:02;;;;;;;4.55;2.20;;;11.30;99.90;;;11.36;97.58;101081.59;5136949;28;20527;-68
2023/03/21 02:08:40;;;;;;;4.97;2.30;;;11.30;99.90;;;11.35;97.96;101080.72;5117864;28;20417;-68
2023/03/21 02:11:18;;;;;;;3.35;1.90;;;11.30;99.90;;;11.36;98.03;101071.16;5117671;28;20452;-68
2023/03/21 02:13:50;;;;;;;5.60;1.92;;;11.30;99.90;;;11.37;97.96;101078.16;5119475;29;20584;-68
2023/03/21 02:16:34;;;;;;;3.33;1.77;;;11.30;99.90;;;11.36;98.08;101068.53;5121464;29;20522;-68
2023/03/21 02:19:44;;;;;;;4.97;2.10;;;11.30;99.90;;;11.36;98.36;101065.94;5121705;28;20051;-68
2023/03/21 02:22:32;;;;;;;3.33;1.85;;;11.30;99.90;;;11.37;98.10;101067.69;5114003;29;20051;-67
2023/03/21 02:26:01;;;;;;;6.13;1.95;;;11.30;99.90;;;11.35;98.28;101054.59;5137087;28;20043;-68
2023/03/21 02:28:40;;;;;;;6.82;2.08;;;11.30;99.90;;;11.34;97.97;101052.81;5122582;29;20103;-68
2023/03/21 02:31:31;;;;;;;4.90;1.80;;;11.30;99.90;;;11.30;98.10;101050.06;5122884;29;20050;-68
2023/03/21 02:34:36;;;;;;;6.03;2.17;;;11.30;99.90;;;11.28;98.57;101046.47;5120978;29;20518;-68
2023/03/21 02:37:25;;;;;;;5.30;2.08;;;11.30;99.90;;;11.27;98.42;101036.88;5137282;28;20039;-67
2023/03/21 02:40:09;;;;;;;4.97;1.80;;;11.20;99.90;;;11.26;98.60;101038.59;5121170;29;20066;-69
2023/03/21 02:42:58;;;;;;;4.32;2.00;;;11.20;99.90;;;11.26;98.78;101040.31;5117423;29;20054;-67
2023/03/21 02:45:38;;;;;;;4.28;1.73;;;11.20;99.90;;;11.27;98.63;101036.88;5131436;28;20512;-73
2023/03/21 02:48:15;;;;;;;4.90;1.85;;;11.20;99.90;;;11.29;98.82;101030.00;5121010;28;20049;-67
2023/03/21 02:50:52;;;;;;;3.90;1.90;;;11.20;99.90;;;11.23;98.93;101037.63;5120866;29;20063;-68
2023/03/21 02:53:32;;;;;;;4.70;1.92;;;11.20;99.90;;;11.23;98.99;101040.22;5133694;28;20130;-68
2023/03/21 02:56:09;;;;;;;5.93;1.92;;;11.20;99.90;;;11.22;99.40;101031.50;5123486;28;20043;-67
2023/03/21 02:58:44;;;;;;;4.90;1.63;;;11.20;99.90;;;11.24;99.52;101032.44;5125371;28;20053;-67
2023/03/21 03:01:16;;;;;;;4.65;1.80;;;11.20;99.90;;;11.24;99.62;101026.34;5124428;29;20578;-68
2023/03/21 03:03:53;;;;;;;7.70;2.35;;;11.20;99.90;;;11.23;99.73;101030.69;5124603;29;20562;-69
2023/03/21 03:06:29;;;;;;;2.38;1.60;;;11.20;99.90;;;11.23;100.00;101032.41;5140644;28;20047;-68
2023/03/21 03:09:21;;;;;;;1.67;1.45;;;11.10;99.90;;;11.22;99.89;101021.06;5138884;28;20043;-68
2023/03/21 03:12:02;;;;;;;5.90;1.98;;;11.10;99.90;;;11.21;99.88;101023.59;5124495;29;20547;-68
2023/03/21 03:14:52;;;;;;;4.78;1.95;;;11.20;99.90;;;11.21;100.00;101018.38;5137190;28;20075;-67
2023/03/21 03:17:39;;;;;;;2.83;1.42;;;11.10;99.90;;;11.19;100.00;101026.16;5119205;29;20098;-67
2023/03/21 03:20:22;;;;;;;3.55;1.52;;;11.10;99.90;;;11.20;100.00;101017.50;5125521;28;20043;-69
2023/03/21 03:23:08;;;;;;;3.53;1.67;;;11.10;99.90;;;11.22;100.00;101020.19;5140573;28;20054;-68
2023/03/21 03:25:47;;;;;;;1.95;1.42;;;11.10;99.90;;;11.22;100.00;101010.63;5125893;29;20085;-68
2023/03/21 03:28:27;;;;;;;2.42;1.52;;;11.10;99.90;;;11.24;100.00;101013.28;5132997;28;20142;-67
2023/03/21 03:31:02;;;;;;;4.50;1.90;;;11.10;99.90;;;11.23;100.00;101007.19;5124425;29;20530;-68
2023/03/21 03:33:41;;;;;;;4.72;1.70;;;11.10;99.90;;;11.23;100.00;101007.19;5124641;29;20508;-68
2023/03/21 03:36:17;;;;;;;5.28;1.60;;;11.20;99.90;;;11.21;100.00;101002.72;5140587;28;20526;-68
2023/03/21 03:38:51;;;;;;;5.32;1.85;;;11.10;99.90;;;11.22;100.00;101008.03;5136165;28;20051;-68
2023/03/21 03:41:28;;;;;;;4.13;1.95;;;11.20;99.90;;;11.21;100.00;101005.34;5136857;28;20058;-73
2023/03/21 03:44:05;;;;;;;;;;;11.10;99.90;;;11.19;100.00;101004.41;5109161;29;20047;-72
2023/03/21 03:46:51;;;;;;;6.55;2.38;;;11.10;99.90;;;11.19;100.00;100999.19;5132860;28;20025;-66
2023/03/21 03:49:27;;;;;;;4.40;1.65;;;11.10;99.90;;;11.17;100.00;101001.75;5118683;29;20212;-68
2023/03/21 03:52:04;;;;;;;2.35;1.40;;;11.10;99.90;;;11.17;100.00;100999.16;5125589;29;20051;-67
2023/03/21 03:54:49;;;;;;;4.28;1.95;;;11.10;99.90;;;11.16;100.00;101005.19;5120047;29;20052;-67
2023/03/21 03:57:26;;;;;;;4.53;1.70;;;11.10;99.90;;;11.14;100.00;101007.72;5127947;28;20046;-68
2023/03/21 04:00:00;;;;;;;4.22;2.03;;;11.10;99.90;;;11.12;100.00;100998.97;5105096;29;20059;-68
2023/03/21 04:02:51;;;;;;;4.22;1.90;;;11.10;99.90;;;11.10;100.00;101000.66;5125167;28;20051;-68
2023/03/21 04:05:28;;;;;;;5.05;1.70;;;11.10;99.90;;;11.10;100.00;100994.53;5116214;28;20047;-67
2023/03/21 04:08:01;;;;;;;2.95;1.60;;;11.10;99.90;;;11.10;100.00;101000.66;5121733;29;20496;-69
2023/03/21 04:10:42;;;;;;;3.25;1.73;;;11.10;99.90;;;11.09;100.00;100991.06;5110507;29;20050;-68
2023/03/21 04:13:18;;;;;;;4.53;2.05;;;11.00;99.90;;;11.07;100.00;100992.69;5127941;28;20522;-67
2023/03/21 04:15:59;;;;;;;2.90;1.70;;;11.00;99.90;;;11.05;100.00;100986.53;5136200;28;20058;-67
2023/03/21 04:18:31;;;;;;;5.45;1.88;;;11.00;99.90;;;11.01;100.00;100987.25;5124423;28;20043;-68
2023/03/21 04:21:09;;;;;;;8.52;2.72;;;11.00;99.90;;;11.00;100.00;100985.47;5139144;28;20397;-68
2023/03/21 04:23:42;;;;;;;6.55;2.58;;;11.00;99.90;;;10.99;100.00;100988.94;5119206;29;20043;-67
2023/03/21 04:26:14;;;;;;;7.70;3.80;;;11.00;99.90;;;10.95;100.00;100979.19;5104193;29;20383;-68
2023/03/21 04:28:59;;;;;;;7.32;4.13;;;11.00;99.90;;;10.95;100.00;100981.81;5116040;29;20035;-67
2023/03/21 04:31:52;;;;;;;7.00;3.20;;;11.00;99.90;;;10.93;100.00;100993.91;5125023;29;20500;-68
2023/03/21 04:34:27;;;;;;;7.05;2.60;;;10.90;99.90;;;10.92;100.00;100976.50;5116578;29;20050;-67
2023/03/21 04:37:09;;;;;;;4.88;2.72;;;10.90;99.90;;;10.93;100.00;100980.00;5120169;29;20052;-68
2023/03/21 04:39:42;;;;;;;5.82;2.50;;;10.90;99.90;;;10.94;100.00;100977.44;5118839;29;20081;-68
2023/03/21 04:42:17;;;;;;;4.78;2.25;;;10.90;99.90;;;10.93;100.00;100973.06;5126282;28;20497;-68
2023/03/21 04:44:51;;;;;;;5.72;2.22;;;10.90;99.90;;;10.93;100.00;100970.44;5118845;29;20039;-68
2023/03/21 04:47:23;;;;;;;5.50;2.20;;;10.90;99.90;;;10.92;100.00;100970.41;5134753;28;20423;-68
2023/03/21 04:49:56;;;;;;;6.95;2.35;;;10.90;99.90;;;10.91;100.00;100969.50;5119229;28;20075;-68
2023/03/21 04:52:29;;;;;;;5.20;2.00;;;10.90;99.90;;;10.93;100.00;100960.00;5122551;29;20067;-69
2023/03/21 04:55:02;;;;;;;9.07;2.30;;;10.90;99.90;;;10.92;100.00;100963.47;5130370;28;20138;-68
2023/03/21 04:57:34;;;;;;;6.53;2.17;;;10.90;99.90;;;10.91;100.00;100971.25;5122584;29;20056;-68
2023/03/21 05:00:12;;;;;;;4.40;2.58;;;10.90;99.90;;;10.90;100.00;100966.84;5136281;28;20504;-68
2023/03/21 05:02:45;;;;;;;6.55;2.35;;;10.80;99.90;;;10.90;100.00;100969.47;5115628;29;20131;-67
2023/03/21 05:05:17;;;;;;;5.60;2.33;;;10.80;99.90;;;10.86;100.00;100968.44;5113477;29;20154;-68
2023/03/21 05:07:50;;;;;;;5.80;2.33;;;10.80;99.90;;;10.85;100.00;100970.19;5116496;28;20039;-67
2023/03/21 05:10:22;;;;;;;5.55;2.38;;;10.80;99.90;;;10.86;100.00;100964.13;5126528;28;20058;-68
2023/03/21 05:12:54;;;;;;;4.88;2.47;;;10.80;99.90;;;10.86;100.00;100971.94;5127239;28;20043;-69
2023/03/21 05:15:28;;;;;;;5.18;2.33;;;10.80;99.90;;;10.87;100.00;100971.09;5111342;28;20047;-67
2023/03/21 05:18:09;;;;;;;6.15;2.20;;;10.80;99.90;;;10.86;100.00;100968.44;5110865;29;20035;-67
2023/03/21 05:20:43;;;;;;;7.45;2.72;;;10.80;99.90;;;10.90;100.00;100974.69;5115948;28;20043;-68
2023/03/21 05:23:17;;;;;;;7.80;2.40;;;10.80;99.90;;;10.87;100.00;100971.09;5112981;28;20063;-68
2023/03/21 05:25:52;;;;;;;7.18;2.42;;;10.80;99.90;;;10.86;100.00;100968.44;5117410;29;20114;-68
2023/03/21 05:28:38;;;;;;;;;;;10.80;99.90;;;10.87;100.00;100978.03;5118204;28;20527;-67
2023/03/21 05:31:15;;;;;;;5.88;2.53;;;10.80;99.90;;;10.87;100.00;100975.44;5123065;28;20017;-68
2023/03/21 05:33:48;;;;;;;6.28;2.30;;;10.80;99.90;;;10.84;100.00;100975.34;5123120;28;20495;-67
2023/03/21 05:36:24;;;;;;;5.55;2.72;;;10.80;99.90;;;10.84;100.00;100970.13;5133679;28;20043;-67
2023/03/21 05:38:56;;;;;;;5.95;2.50;;;10.80;99.90;;;10.85;100.00;100969.28;5125543;28;20075;-68
2023/03/21 05:41:30;;;;;;;4.32;2.35;;;10.80;99.90;;;10.87;100.00;100978.03;5126774;28;20049;-68
2023/03/21 05:44:03;;;;;;;6.47;3.05;;;10.80;99.90;;;10.89;100.00;100976.41;5120513;29;20441;-68
2023/03/21 05:46:37;;;;;;;7.53;2.63;;;10.80;99.90;;;10.87;100.00;100973.72;5115186;28;20043;-69
2023/03/21 05:49:11;;;;;;;5.55;2.35;;;10.80;99.90;;;10.87;100.00;100978.03;5135555;28;20043;-68
2023/03/21 05:51:44;;;;;;;7.07;2.63;;;10.80;99.90;;;10.87;100.00;100975.44;5129865;28;20130;-69
2023/03/21 05:54:17;;;;;;;4.65;2.20;;;10.80;99.90;;;10.88;100.00;100977.22;5110696;29;20044;-67
2023/03/21 05:56:53;;;;;;;3.53;1.90;;;10.80;99.90;;;10.90;100.00;100975.56;5133633;28;20047;-67
2023/03/21 05:59:42;;;;;;;5.60;2.30;;;10.90;99.90;;;10.92;100.00;100978.22;5116199;29;20491;-67
2023/03/21 06:02:16;;;;;;;7.95;2.90;;;10.90;99.90;;;10.94;100.00;100977.44;5121777;28;20468;-68
2023/03/21 06:04:49;;;;;;;8.10;2.72;;;10.90;99.90;;;10.90;100.00;100974.69;5129552;28;20051;-68
2023/03/21 06:07:22;;;;;;;6.43;2.58;;;10.90;99.90;;;10.93;100.00;100966.94;5130195;28;20389;-68
2023/03/21 06:09:56;;;;;;;8.48;3.03;;;10.90;99.90;;;10.93;100.00;100966.94;5122486;28;20353;-68
2023/03/21 06:12:28;;;;;;;7.28;2.60;;;10.90;99.90;;;10.93;100.00;100960.00;5125422;28;20062;-68
2023/03/21 06:15:15;;;;;;;7.40;2.47;;;10.90;99.90;;;10.94;100.00;100977.44;5109182;29;20048;-69
2023/03/21 06:18:11;;;;;;;5.15;2.28;;;10.90;99.90;;;10.96;100.00;100975.78;5112803;29;20048;-68
2023/03/21 06:20:56;;;;;;;6.28;2.42;;;10.90;99.90;;;10.97;100.00;100974.94;5134050;28;20460;-68
2023/03/21 06:23:28;;;;;;;7.45;2.33;;;11.00;99.90;;;10.99;100.00;100981.09;5110028;29;20043;-68
2023/03/21 06:26:01;;;;;;;7.57;2.67;;;10.90;99.90;;;11.01;100.00;100979.44;5109081;29;20257;-68
2023/03/21 06:28:34;;;;;;;4.78;2.13;;;11.00;99.90;;;11.00;100.00;100979.38;5112154;28;20118;-67
2023/03/21 06:31:07;;;;;;;5.72;2.10;;;10.90;99.90;;;11.00;100.00;100975.03;5134836;28;20062;-68
2023/03/21 06:33:41;;;;;;;8.00;2.70;;;11.00;99.90;;;11.03;100.00;100983.00;5119042;29;20051;-68
2023/03/21 06:36:14;;;;;;;4.28;2.40;;;11.00;99.90;;;11.06;100.00;100980.50;5133375;28;20087;-61
2023/03/21 06:38:47;;;;;;;7.63;2.05;;;11.00;99.90;;;11.09;100.00;100985.84;5128045;28;20043;-61
2023/03/21 06:41:19;;;;;;;9.15;3.05;;;11.00;99.90;;;11.12;100.00;100987.66;5125069;29;20546;-62
2023/03/21 06:44:01;;;;;;;8.45;3.35;;;11.10;99.90;;;11.15;100.00;100979.94;5117947;28;20489;-60
2023/03/21 06:46:37;;;;;;;6.50;2.25;;;11.10;99.90;;;11.16;100.00;100986.06;5137422;28;20046;-61
2023/03/21 06:49:11;;;;;;;7.50;2.72;;;11.10;99.90;;;11.21;100.00;100992.28;5109095;29;20471;-61
2023/03/21 06:51:46;;;;;;;5.05;2.10;;;11.10;99.90;;;11.25;100.00;100988.97;5121512;29;20066;-61
2023/03/21 06:54:22;;;;;;;5.18;2.33;;;11.10;99.90;;;11.29;100.00;100985.66;5125074;29;20051;-61
2023/03/21 06:57:16;;;;;;;7.75;2.97;;;11.20;99.90;;;11.32;100.00;100985.72;5115144;29;20062;-60
2023/03/21 06:59:49;;;;;;;4.72;2.50;;;11.20;99.90;;;11.33;100.00;100998.81;5113020;29;20143;-59
2023/03/21 07:02:25;;;;;;;5.68;2.40;;;11.30;99.90;;;11.34;100.00;100989.28;5108776;29;20074;-60
2023/03/21 07:05:17;;;;;;;7.30;2.08;;;11.30;99.90;;;11.35;100.00;100994.56;5132242;28;20086;-56
2023/03/21 07:07:50;;;;;;;7.78;2.22;;;11.30;99.90;;;11.38;100.00;100986.84;5133514;28;20400;-56
2023/03/21 07:10:22;;;;;;;6.03;2.10;;;11.30;99.90;;;11.43;100.00;100987.00;5121453;29;20046;-54
2023/03/21 07:13:04;;;;;;;6.32;2.20;;;11.30;99.90;;;11.45;100.00;100990.53;5133141;28;20440;-56
2023/03/21 07:15:42;;;;;;;3.17;1.85;;;11.40;99.90;;;11.47;100.00;100999.31;5119540;29;20192;-55
2023/03/21 07:18:14;;;;;;;5.55;2.42;;;11.40;99.90;;;11.49;100.00;101002.88;5136152;28;20146;-56
2023/03/21 07:20:51;;;;;;;6.25;2.45;;;11.40;99.90;;;11.49;100.00;101002.00;5118793;29;20043;-55
2023/03/21 07:23:25;;;;;;;8.63;2.80;;;11.40;99.90;;;11.47;100.00;101001.03;5120048;29;20126;-56
2023/03/21 07:25:59;;;;;;;6.07;2.42;;;11.40;99.90;;;11.49;100.00;101007.22;5111573;29;20134;-56
2023/03/21 07:28:32;;;;;;;7.38;2.10;;;11.40;99.90;;;11.50;100.00;101002.03;5132327;28;20501;-55
2023/03/21 07:31:08;;;;;;;6.57;2.50;;;11.40;99.90;;;11.52;100.00;101010.81;5107504;29;20115;-56
2023/03/21 07:33:40;;;;;;;5.25;2.38;;;11.40;99.90;;;11.51;100.00;101003.81;5104336;29;20047;-56
2023/03/21 07:36:15;;;;;;;4.45;2.13;;;11.40;99.90;;;11.52;100.00;101008.19;5121058;29;20055;-55
2023/03/21 07:38:47;;;;;;;4.38;2.03;;;11.40;99.90;;;11.54;100.00;101009.16;5179202;23;20045;-57
2023/03/21 07:41:23;;;;;;;5.32;2.28;;;11.40;99.90;;;11.56;100.00;101012.69;5144052;28;20039;-58
2023/03/21 07:43:57;;;;;;;4.68;2.15;;;11.50;99.90;;;11.57;100.00;101011.84;5139494;28;20050;-59
2023/03/21 07:46:36;;;;;;;4.72;2.67;;;11.50;99.90;;;11.59;100.00;101015.38;5132517;28;20523;-59
2023/03/21 07:49:08;;;;;;;5.55;2.38;;;11.50;99.90;;;11.58;100.00;101012.75;5125680;28;20047;-58
2023/03/21 07:51:42;;;;;;;5.07;2.35;;;11.50;99.90;;;11.57;100.00;101018.81;5148731;28;20078;-59
2023/03/21 07:54:18;;;;;;;5.63;2.30;;;11.50;99.90;;;11.57;100.00;101019.69;5149895;28;20055;-59
2023/03/21 07:56:50;;;;;;;6.30;2.63;;;11.50;99.90;;;11.57;100.00;101018.81;5151099;28;20047;-58
2023/03/21 07:59:22;;;;;;;8.90;3.10;;;11.50;99.90;;;11.53;100.00;101023.00;5126975;28;20047;-58
2023/03/21 08:01:54;;;;;;;8.68;3.00;;;11.40;99.90;;;11.48;100.00;101029.81;5137504;28;20042;-58
2023/03/21 08:04:26;;;;;;;6.22;2.83;;;11.40;99.90;;;11.46;100.00;101031.47;5143887;28;20443;-57
2023/03/21 08:07:00;;;;;;;6.55;2.97;;;11.40;99.90;;;11.44;100.00;101025.31;5137833;28;20157;-59
2023/03/21 08:09:32;;;;;;;5.90;2.35;;;11.40;99.90;;;11.45;100.00;101021.88;5128938;28;20089;-57
2023/03/21 08:12:07;;;;;;;5.13;2.20;;;11.40;99.90;;;11.43;100.00;101033.09;5135569;28;20051;-57
2023/03/21 08:14:39;;;;;;;6.53;2.30;;;11.40;99.90;;;11.41;100.00;101028.72;5133502;28;20043;-58
2023/03/21 08:17:11;;;;;;;6.10;2.60;;;11.30;99.90;;;11.36;100.00;101022.44;5134299;28;20133;-57
2023/03/21 08:19:43;;;;;;;7.47;3.17;;;11.30;99.90;;;11.31;100.00;101029.22;5131635;28;20043;-57
2023/03/21 08:22:17;;;;;;;10.55;3.08;;;11.30;99.90;;;11.24;100.00;101023.72;5133225;28;20050;-58
2023/03/21 08:24:49;;;;;;;5.60;2.80;;;11.20;99.90;;;11.20;100.00;101027.06;5139765;28;20045;-58
2023/03/21 08:27:21;;;;;;;8.45;3.53;;;11.20;99.90;;;11.18;100.00;101023.50;5126660;28;20822;-57
2023/03/21 08:29:53;;;;;;;6.93;3.08;;;11.20;99.90;;;11.17;100.00;101021.75;5125173;28;20031;-57
2023/03/21 08:32:28;;;;;;;8.00;3.13;;;11.10;99.90;;;11.17;100.00;101022.63;5125444;28;20050;-58
2023/03/21 08:35:01;;;;;;;;;;;11.20;99.90;;;11.20;100.00;101016.63;5133716;28;20035;-57
2023/03/21 08:37:35;;;;;;;5.60;2.38;;;11.20;99.90;;;11.22;100.00;101009.75;5137374;28;19922;-58
2023/03/21 08:40:12;;;;;;;8.68;2.75;;;11.10;99.90;;;11.21;100.00;101013.16;5136466;28;20408;-57
2023/03/21 08:42:46;;;;;;;6.75;2.88;;;11.20;99.90;;;11.20;100.00;101014.00;5125009;28;20407;-57
2023/03/21 08:45:18;;;;;;;9.75;3.45;;;11.10;99.90;;;11.15;100.00;101008.66;5126841;28;20109;-58
2023/03/21 08:47:50;;;;;;;9.57;2.47;;;11.10;99.90;;;11.14;100.00;101007.72;5131168;28;20487;-57
2023/03/21 08:50:25;;;;;;;7.65;2.70;;;11.10;99.90;;;11.16;100.00;101013.03;5127174;28;20047;-57
2023/03/21 08:52:59;;;;;;;9.15;3.17;;;11.10;99.90;;;11.19;100.00;101009.63;5136460;28;20523;-57
2023/03/21 08:55:32;;;;;;;7.15;2.70;;;11.10;99.90;;;11.23;100.00;101003.69;5124516;28;20050;-57
2023/03/21 08:58:05;;;;;;;6.88;3.00;;;11.20;99.90;;;11.24;100.00;101008.97;5124905;28;20042;-58
2023/03/21 09:00:37;;;;;;;9.48;3.40;;;11.20;99.90;;;11.22;100.00;101014.97;5137484;28;20483;-57
2023/03/21 09:03:09;;;;;;;7.65;3.67;;;11.20;99.90;;;11.20;100.00;101012.28;5128503;28;20394;-57
2023/03/21 09:05:44;;;;;;;8.32;3.58;;;11.20;99.90;;;11.22;100.00;101017.59;5131252;28;20424;-58
2023/03/21 09:08:22;;;;;;;10.10;3.38;;;11.20;99.90;;;11.22;100.00;101015.84;5132194;28;20461;-58
2023/03/21 09:10:54;;;;;;;8.65;3.47;;;11.20;99.90;;;11.24;100.00;101021.13;5124517;28;20129;-57
2023/03/21 09:13:27;;;;;;;6.43;2.97;;;11.20;99.90;;;11.23;100.00;101020.25;5131103;28;20568;-57
2023/03/21 09:16:00;;;;;;;6.53;3.03;;;11.10;99.90;;;11.23;100.00;101014.13;5132075;28;20047;-57
2023/03/21 09:18:45;;;;;;;8.77;3.25;;;11.10;99.90;;;11.20;100.00;101016.63;5123903;28;20101;-56
2023/03/21 09:21:19;;;;;;;10.25;3.33;;;11.10;99.90;;;11.14;100.00;101009.44;5124383;28;20051;-56
2023/03/21 09:23:54;;;;;;;7.65;3.42;;;11.10;99.90;;;11.11;100.00;101012.84;5124290;28;20404;-57
2023/03/21 09:26:27;;;;;;;7.82;3.72;;;11.10;99.90;;;11.11;100.00;101010.25;5126855;28;20130;-57
2023/03/21 09:29:03;;;;;;;10.55;3.88;;;11.10;99.90;;;11.02;100.00;101012.53;5135864;28;20436;-57
2023/03/21 09:31:35;;;;;;;8.07;3.75;;;11.00;99.90;;;11.03;100.00;101002.97;5124227;28;20046;-57
2023/03/21 09:34:07;;;;;;;10.38;3.72;;;11.00;99.90;;;11.00;100.00;101003.75;5123940;28;20050;-57
2023/03/21 09:36:40;;;;;;;9.68;3.30;;;11.00;99.90;;;10.98;100.00;100987.16;5132018;28;20495;-57
2023/03/21 09:39:16;;;;;;;9.07;3.90;;;11.00;99.90;;;10.94;100.00;100994.81;5123825;28;20055;-57
2023/03/21 09:42:04;;;;;;;9.13;3.47;;;10.90;99.90;;;10.92;100.00;100999.09;5138376;28;20051;-57
2023/03/21 09:45:01;;;;;;;7.75;3.08;;;10.90;99.90;;;10.90;100.00;100996.44;5139772;28;20068;-57
2023/03/21 09:47:52;;;;;;;10.82;3.20;;;10.90;99.90;;;10.91;100.00;101000.81;5142944;28;20618;-58
2023/03/21 09:50:31;;;;;;;9.38;3.35;;;10.80;99.90;;;10.94;100.00;101003.50;5140326;28;20094;-57
2023/03/21 09:53:10;;;;;;;7.95;3.45;;;10.90;99.90;;;10.99;100.00;101007.19;5122610;28;20066;-59
2023/03/21 09:55:43;;;;;;;10.15;3.90;;;10.90;99.90;;;10.93;100.00;101006.97;5129626;28;20050;-57
2023/03/21 09:58:26;;;;;;;8.63;3.42;;;10.90;99.90;;;10.92;100.00;100994.75;5123733;28;20050;-57
2023/03/21 10:01:06;;;;;;;10.32;3.85;;;10.90;99.90;;;10.93;100.00;101004.34;5130956;28;20113;-57
2023/03/21 10:03:42;;;;;;;7.18;2.80;;;10.90;99.90;;;10.98;100.00;100997.59;5137900;28;20066;-57
2023/03/21 10:06:16;;;;;;;10.50;3.40;;;10.90;99.90;;;10.98;100.00;100997.59;5131203;28;20042;-57
2023/03/21 10:08:49;;;;;;;9.25;3.55;;;10.90;99.90;;;11.04;100.00;100997.81;5123686;28;20051;-57
2023/03/21 10:11:27;;;;;;;12.13;3.60;;;11.00;99.90;;;11.05;100.00;101006.53;5131619;28;20519;-58
2023/03/21 10:14:04;;;;;;;9.57;3.80;;;11.00;99.90;;;11.02;100.00;100986.44;5123647;28;20047;-58
2023/03/21 10:16:42;;;;;;;8.07;3.15;;;11.00;99.90;;;11.01;100.00;100989.84;5143059;28;20054;-58
2023/03/21 10:19:17;;;;;;;8.27;3.10;;;11.00;99.90;;;11.02;100.00;100986.44;5126634;28;20062;-58
2023/03/21 10:21:51;;;;;;;9.02;3.78;;;11.00;99.90;;;11.01;100.00;100978.53;5123622;28;20043;-56
2023/03/21 10:24:26;;;;;;;8.40;3.08;;;11.00;99.90;;;10.99;100.00;100980.22;5131654;28;20065;-56
2023/03/21 10:27:01;;;;;;;9.52;3.22;;;11.00;99.90;;;10.98;100.00;100979.34;5130670;28;20399;-57
2023/03/21 10:29:41;;;;;;;6.18;2.45;;;11.00;99.90;;;10.99;100.00;100972.38;5139749;28;20047;-57
2023/03/21 10:32:16;;;;;;;7.38;2.80;;;11.00;99.90;;;11.02;100.00;100970.78;5123418;28;20102;-57
2023/03/21 10:34:54;;;;;;;9.25;3.05;;;11.00;99.90;;;11.05;100.00;100965.66;5123666;28;20608;-57
2023/03/21 10:37:27;;;;;;;8.48;2.85;;;11.00;99.90;;;11.07;100.00;100958.78;5123300;28;20043;-57
2023/03/21 10:39:59;;;;;;;5.63;2.83;;;11.10;99.90;;;11.12;100.00;100958.94;5123462;28;20493;-57
2023/03/21 10:42:35;;;;;;;7.07;2.92;;;11.10;99.90;;;11.17;100.00;100952.19;5126294;28;20404;-57
2023/03/21 10:45:16;;;;;;;9.48;3.78;;;11.10;99.90;;;11.11;100.00;100939.81;5134963;28;20443;-56
2023/03/21 10:47:50;;;;;;;6.05;2.88;;;11.10;99.90;;;11.08;100.00;100934.50;5128479;28;20364;-57